sensor_id;sensor_type;location;lat;lon;timestamp;P1;durP1;ratioP1;P2;durP2;ratioP2
58222;SDS011;44020;50.890;15.796;2023-08-30T00:02:05;3.10;;;2.40;;
58222;SDS011;44020;50.890;15.796;2023-08-30T00:05:04;3.50;;;2.40;;
58222;SDS011;44020;50.890;15.796;2023-08-30T00:07:36;2.70;;;2.00;;
58222;SDS011;44020;50.890;15.796;2023-08-30T00:10:07;2.90;;;2.30;;
58222;SDS011;44020;50.890;15.796;2023-08-30T00:12:37;3.70;;;1.80;;
58222;SDS011;44020;50.890;15.796;2023-08-30T00:15:25;2.90;;;1.90;;
58222;SDS011;44020;50.890;15.796;2023-08-30T00:17:55;3.20;;;1.90;;
58222;SDS011;44020;50.890;15.796;2023-08-30T00:20:26;2.80;;;1.60;;
58222;SDS011;44020;50.890;15.796;2023-08-30T00:23:35;4.00;;;1.40;;
58222;SDS011;44020;50.890;15.796;2023-08-30T00:29:52;1.70;;;1.40;;
58222;SDS011;44020;50.890;15.796;2023-08-30T00:32:23;1.80;;;1.30;;
58222;SDS011;44020;50.890;15.796;2023-08-30T00:35:13;2.40;;;1.30;;
58222;SDS011;44020;50.890;15.796;2023-08-30T00:37:57;2.90;;;1.30;;
58222;SDS011;44020;50.890;15.796;2023-08-30T00:40:25;1.30;;;1.00;;
58222;SDS011;44020;50.890;15.796;2023-08-30T00:42:53;1.30;;;0.90;;
58222;SDS011;44020;50.890;15.796;2023-08-30T00:45:21;2.80;;;1.10;;
58222;SDS011;44020;50.890;15.796;2023-08-30T00:47:49;2.10;;;1.10;;
58222;SDS011;44020;50.890;15.796;2023-08-30T00:50:37;2.10;;;1.00;;
58222;SDS011;44020;50.890;15.796;2023-08-30T00:53:07;2.00;;;1.10;;
58222;SDS011;44020;50.890;15.796;2023-08-30T00:55:56;1.20;;;1.00;;
58222;SDS011;44020;50.890;15.796;2023-08-30T00:58:23;2.10;;;1.10;;
58222;SDS011;44020;50.890;15.796;2023-08-30T01:00:53;1.50;;;0.90;;
58222;SDS011;44020;50.890;15.796;2023-08-30T01:03:34;1.10;;;0.80;;
58222;SDS011;44020;50.890;15.796;2023-08-30T01:06:02;2.20;;;0.80;;
58222;SDS011;44020;50.890;15.796;2023-08-30T01:08:34;1.10;;;0.80;;
58222;SDS011;44020;50.890;15.796;2023-08-30T01:11:26;1.60;;;0.90;;
58222;SDS011;44020;50.890;15.796;2023-08-30T01:14:15;1.90;;;1.00;;
58222;SDS011;44020;50.890;15.796;2023-08-30T01:17:04;3.50;;;0.80;;
58222;SDS011;44020;50.890;15.796;2023-08-30T01:23:11;1.20;;;0.70;;
58222;SDS011;44020;50.890;15.796;2023-08-30T01:32:17;0.80;;;0.60;;
58222;SDS011;44020;50.890;15.796;2023-08-30T01:34:52;1.00;;;0.70;;
58222;SDS011;44020;50.890;15.796;2023-08-30T01:37:21;1.60;;;0.60;;
58222;SDS011;44020;50.890;15.796;2023-08-30T01:39:50;0.80;;;0.70;;
58222;SDS011;44020;50.890;15.796;2023-08-30T01:42:21;1.50;;;0.50;;
58222;SDS011;44020;50.890;15.796;2023-08-30T01:44:58;1.60;;;0.40;;
58222;SDS011;44020;50.890;15.796;2023-08-30T01:47:28;1.70;;;0.60;;
58222;SDS011;44020;50.890;15.796;2023-08-30T01:49:57;0.90;;;0.60;;
58222;SDS011;44020;50.890;15.796;2023-08-30T01:52:30;2.40;;;0.60;;
58222;SDS011;44020;50.890;15.796;2023-08-30T01:55:02;0.60;;;0.40;;
58222;SDS011;44020;50.890;15.796;2023-08-30T01:57:33;0.90;;;0.60;;
58222;SDS011;44020;50.890;15.796;2023-08-30T02:03:16;2.00;;;0.50;;
58222;SDS011;44020;50.890;15.796;2023-08-30T02:05:51;3.60;;;0.40;;
58222;SDS011;44020;50.890;15.796;2023-08-30T02:08:49;0.60;;;0.30;;
58222;SDS011;44020;50.890;15.796;2023-08-30T02:11:23;0.70;;;0.30;;
58222;SDS011;44020;50.890;15.796;2023-08-30T02:13:53;1.10;;;0.20;;
58222;SDS011;44020;50.890;15.796;2023-08-30T02:16:23;1.30;;;0.30;;
58222;SDS011;44020;50.890;15.796;2023-08-30T02:18:53;1.30;;;0.30;;
58222;SDS011;44020;50.890;15.796;2023-08-30T02:21:20;1.50;;;0.50;;
58222;SDS011;44020;50.890;15.796;2023-08-30T02:23:51;1.10;;;0.40;;
58222;SDS011;44020;50.890;15.796;2023-08-30T02:26:19;2.10;;;0.80;;
58222;SDS011;44020;50.890;15.796;2023-08-30T02:28:47;16.10;;;6.70;;
58222;SDS011;44020;50.890;15.796;2023-08-30T02:31:14;17.90;;;7.30;;
58222;SDS011;44020;50.890;15.796;2023-08-30T02:33:42;6.10;;;2.10;;
58222;SDS011;44020;50.890;15.796;2023-08-30T02:36:10;4.10;;;1.30;;
58222;SDS011;44020;50.890;15.796;2023-08-30T02:38:37;3.40;;;1.40;;
58222;SDS011;44020;50.890;15.796;2023-08-30T02:41:05;8.60;;;4.10;;
58222;SDS011;44020;50.890;15.796;2023-08-30T02:43:32;6.60;;;3.50;;
58222;SDS011;44020;50.890;15.796;2023-08-30T02:46:00;5.70;;;1.70;;
58222;SDS011;44020;50.890;15.796;2023-08-30T02:48:28;1.40;;;0.70;;
58222;SDS011;44020;50.890;15.796;2023-08-30T02:50:56;0.80;;;0.50;;
58222;SDS011;44020;50.890;15.796;2023-08-30T02:53:23;2.00;;;0.50;;
58222;SDS011;44020;50.890;15.796;2023-08-30T02:55:50;0.50;;;0.40;;
58222;SDS011;44020;50.890;15.796;2023-08-30T02:58:18;0.40;;;0.30;;
58222;SDS011;44020;50.890;15.796;2023-08-30T03:00:45;1.70;;;0.30;;
58222;SDS011;44020;50.890;15.796;2023-08-30T03:03:12;0.30;;;0.30;;
58222;SDS011;44020;50.890;15.796;2023-08-30T03:05:40;1.50;;;0.30;;
58222;SDS011;44020;50.890;15.796;2023-08-30T03:08:07;0.90;;;0.30;;
58222;SDS011;44020;50.890;15.796;2023-08-30T03:10:34;1.30;;;0.40;;
58222;SDS011;44020;50.890;15.796;2023-08-30T03:13:01;0.70;;;0.30;;
58222;SDS011;44020;50.890;15.796;2023-08-30T03:15:33;0.70;;;0.30;;
58222;SDS011;44020;50.890;15.796;2023-08-30T03:18:00;0.40;;;0.40;;
58222;SDS011;44020;50.890;15.796;2023-08-30T03:20:28;0.70;;;0.40;;
58222;SDS011;44020;50.890;15.796;2023-08-30T03:22:55;1.60;;;0.40;;
58222;SDS011;44020;50.890;15.796;2023-08-30T03:25:29;0.30;;;0.30;;
58222;SDS011;44020;50.890;15.796;2023-08-30T03:27:57;0.80;;;0.40;;
58222;SDS011;44020;50.890;15.796;2023-08-30T03:30:24;0.40;;;0.30;;
58222;SDS011;44020;50.890;15.796;2023-08-30T03:32:52;0.60;;;0.40;;
58222;SDS011;44020;50.890;15.796;2023-08-30T03:35:19;0.30;;;0.30;;
58222;SDS011;44020;50.890;15.796;2023-08-30T03:37:48;2.00;;;0.50;;
58222;SDS011;44020;50.890;15.796;2023-08-30T03:40:15;0.80;;;0.30;;
58222;SDS011;44020;50.890;15.796;2023-08-30T03:42:43;1.40;;;0.60;;
58222;SDS011;44020;50.890;15.796;2023-08-30T03:45:10;1.10;;;0.40;;
58222;SDS011;44020;50.890;15.796;2023-08-30T03:47:37;0.60;;;0.40;;
58222;SDS011;44020;50.890;15.796;2023-08-30T03:50:05;0.80;;;0.50;;
58222;SDS011;44020;50.890;15.796;2023-08-30T03:52:33;1.40;;;0.60;;
58222;SDS011;44020;50.890;15.796;2023-08-30T03:55:00;1.10;;;0.70;;
58222;SDS011;44020;50.890;15.796;2023-08-30T03:57:28;1.00;;;0.40;;
58222;SDS011;44020;50.890;15.796;2023-08-30T03:59:55;2.00;;;1.10;;
58222;SDS011;44020;50.890;15.796;2023-08-30T04:02:23;1.10;;;0.70;;
58222;SDS011;44020;50.890;15.796;2023-08-30T04:04:50;1.70;;;0.70;;
58222;SDS011;44020;50.890;15.796;2023-08-30T04:07:17;0.90;;;0.70;;
58222;SDS011;44020;50.890;15.796;2023-08-30T04:09:44;1.10;;;0.70;;
58222;SDS011;44020;50.890;15.796;2023-08-30T04:12:11;1.10;;;0.70;;
58222;SDS011;44020;50.890;15.796;2023-08-30T04:14:39;1.40;;;0.70;;
58222;SDS011;44020;50.890;15.796;2023-08-30T04:17:06;1.70;;;0.70;;
58222;SDS011;44020;50.890;15.796;2023-08-30T04:19:33;1.10;;;0.40;;
58222;SDS011;44020;50.890;15.796;2023-08-30T04:22:01;0.50;;;0.40;;
58222;SDS011;44020;50.890;15.796;2023-08-30T04:24:28;1.00;;;0.40;;
58222;SDS011;44020;50.890;15.796;2023-08-30T04:26:55;1.00;;;0.50;;
58222;SDS011;44020;50.890;15.796;2023-08-30T04:29:23;0.60;;;0.30;;
58222;SDS011;44020;50.890;15.796;2023-08-30T04:31:50;1.20;;;0.70;;
58222;SDS011;44020;50.890;15.796;2023-08-30T04:34:18;0.50;;;0.40;;
58222;SDS011;44020;50.890;15.796;2023-08-30T04:36:45;0.80;;;0.40;;
58222;SDS011;44020;50.890;15.796;2023-08-30T04:39:13;2.50;;;0.70;;
58222;SDS011;44020;50.890;15.796;2023-08-30T04:41:40;3.10;;;0.70;;
58222;SDS011;44020;50.890;15.796;2023-08-30T04:44:08;1.40;;;0.60;;
58222;SDS011;44020;50.890;15.796;2023-08-30T04:46:35;0.80;;;0.60;;
58222;SDS011;44020;50.890;15.796;2023-08-30T04:49:03;2.20;;;0.90;;
58222;SDS011;44020;50.890;15.796;2023-08-30T04:51:30;2.70;;;1.00;;
58222;SDS011;44020;50.890;15.796;2023-08-30T04:53:58;2.50;;;0.90;;
58222;SDS011;44020;50.890;15.796;2023-08-30T04:56:25;2.00;;;0.50;;
58222;SDS011;44020;50.890;15.796;2023-08-30T04:58:53;3.20;;;1.20;;
58222;SDS011;44020;50.890;15.796;2023-08-30T05:01:20;4.20;;;1.40;;
58222;SDS011;44020;50.890;15.796;2023-08-30T05:03:48;5.40;;;1.90;;
58222;SDS011;44020;50.890;15.796;2023-08-30T05:06:15;3.20;;;1.40;;
58222;SDS011;44020;50.890;15.796;2023-08-30T05:08:43;2.10;;;1.30;;
58222;SDS011;44020;50.890;15.796;2023-08-30T05:11:10;2.40;;;1.00;;
58222;SDS011;44020;50.890;15.796;2023-08-30T05:13:37;0.80;;;0.70;;
58222;SDS011;44020;50.890;15.796;2023-08-30T05:16:05;1.00;;;0.80;;
58222;SDS011;44020;50.890;15.796;2023-08-30T05:18:32;0.60;;;0.60;;
58222;SDS011;44020;50.890;15.796;2023-08-30T05:20:59;1.20;;;0.70;;
58222;SDS011;44020;50.890;15.796;2023-08-30T05:23:26;0.60;;;0.40;;
58222;SDS011;44020;50.890;15.796;2023-08-30T05:25:54;0.70;;;0.40;;
58222;SDS011;44020;50.890;15.796;2023-08-30T05:28:21;0.70;;;0.40;;
58222;SDS011;44020;50.890;15.796;2023-08-30T05:30:48;0.70;;;0.50;;
58222;SDS011;44020;50.890;15.796;2023-08-30T05:33:15;0.60;;;0.50;;
58222;SDS011;44020;50.890;15.796;2023-08-30T05:35:43;0.40;;;0.40;;
58222;SDS011;44020;50.890;15.796;2023-08-30T05:38:10;1.30;;;0.60;;
58222;SDS011;44020;50.890;15.796;2023-08-30T05:40:37;1.20;;;0.70;;
58222;SDS011;44020;50.890;15.796;2023-08-30T05:43:09;0.90;;;0.70;;
58222;SDS011;44020;50.890;15.796;2023-08-30T05:45:36;5.50;;;0.80;;
58222;SDS011;44020;50.890;15.796;2023-08-30T05:48:04;0.80;;;0.70;;
58222;SDS011;44020;50.890;15.796;2023-08-30T05:50:32;1.20;;;0.60;;
58222;SDS011;44020;50.890;15.796;2023-08-30T05:52:59;2.10;;;0.90;;
58222;SDS011;44020;50.890;15.796;2023-08-30T05:55:26;1.00;;;0.70;;
58222;SDS011;44020;50.890;15.796;2023-08-30T05:57:54;2.20;;;0.80;;
58222;SDS011;44020;50.890;15.796;2023-08-30T06:00:21;1.10;;;0.80;;
58222;SDS011;44020;50.890;15.796;2023-08-30T06:02:48;1.50;;;1.10;;
58222;SDS011;44020;50.890;15.796;2023-08-30T06:05:18;1.30;;;1.10;;
58222;SDS011;44020;50.890;15.796;2023-08-30T06:07:45;1.10;;;0.80;;
58222;SDS011;44020;50.890;15.796;2023-08-30T06:10:12;1.10;;;0.80;;
58222;SDS011;44020;50.890;15.796;2023-08-30T06:12:40;1.20;;;1.00;;
58222;SDS011;44020;50.890;15.796;2023-08-30T06:15:07;2.20;;;0.90;;
58222;SDS011;44020;50.890;15.796;2023-08-30T06:17:35;1.50;;;1.10;;
58222;SDS011;44020;50.890;15.796;2023-08-30T06:20:02;1.50;;;1.00;;
58222;SDS011;44020;50.890;15.796;2023-08-30T06:22:30;2.30;;;1.70;;
58222;SDS011;44020;50.890;15.796;2023-08-30T06:24:57;2.40;;;1.90;;
58222;SDS011;44020;50.890;15.796;2023-08-30T06:27:24;4.00;;;2.00;;
58222;SDS011;44020;50.890;15.796;2023-08-30T06:29:51;3.00;;;2.20;;
58222;SDS011;44020;50.890;15.796;2023-08-30T06:32:19;3.20;;;2.80;;
58222;SDS011;44020;50.890;15.796;2023-08-30T06:34:46;2.80;;;2.50;;
58222;SDS011;44020;50.890;15.796;2023-08-30T06:37:13;3.60;;;2.50;;
58222;SDS011;44020;50.890;15.796;2023-08-30T06:39:41;4.00;;;3.00;;
58222;SDS011;44020;50.890;15.796;2023-08-30T06:42:08;2.90;;;2.50;;
58222;SDS011;44020;50.890;15.796;2023-08-30T06:44:35;3.20;;;2.70;;
58222;SDS011;44020;50.890;15.796;2023-08-30T06:47:02;3.40;;;2.30;;
58222;SDS011;44020;50.890;15.796;2023-08-30T06:49:30;3.70;;;2.60;;
58222;SDS011;44020;50.890;15.796;2023-08-30T06:51:58;3.10;;;2.50;;
58222;SDS011;44020;50.890;15.796;2023-08-30T06:54:28;4.40;;;3.50;;
58222;SDS011;44020;50.890;15.796;2023-08-30T06:56:57;3.30;;;2.50;;
58222;SDS011;44020;50.890;15.796;2023-08-30T06:59:26;4.30;;;3.10;;
58222;SDS011;44020;50.890;15.796;2023-08-30T07:01:53;3.90;;;3.10;;
58222;SDS011;44020;50.890;15.796;2023-08-30T07:04:21;2.90;;;2.40;;
58222;SDS011;44020;50.890;15.796;2023-08-30T07:06:48;3.60;;;2.40;;
58222;SDS011;44020;50.890;15.796;2023-08-30T07:09:16;2.40;;;2.20;;
58222;SDS011;44020;50.890;15.796;2023-08-30T07:11:43;2.50;;;2.00;;
58222;SDS011;44020;50.890;15.796;2023-08-30T07:14:11;2.30;;;1.60;;
58222;SDS011;44020;50.890;15.796;2023-08-30T07:16:40;3.20;;;1.50;;
58222;SDS011;44020;50.890;15.796;2023-08-30T07:19:08;3.60;;;1.80;;
58222;SDS011;44020;50.890;15.796;2023-08-30T07:21:36;1.50;;;1.40;;
58222;SDS011;44020;50.890;15.796;2023-08-30T07:24:08;1.90;;;1.40;;
58222;SDS011;44020;50.890;15.796;2023-08-30T07:26:35;2.10;;;1.60;;
58222;SDS011;44020;50.890;15.796;2023-08-30T07:29:03;1.50;;;1.20;;
58222;SDS011;44020;50.890;15.796;2023-08-30T07:31:33;1.40;;;1.10;;
58222;SDS011;44020;50.890;15.796;2023-08-30T07:34:00;1.60;;;1.20;;
58222;SDS011;44020;50.890;15.796;2023-08-30T07:36:27;2.20;;;1.00;;
58222;SDS011;44020;50.890;15.796;2023-08-30T07:38:54;2.10;;;1.00;;
58222;SDS011;44020;50.890;15.796;2023-08-30T07:41:21;1.30;;;1.00;;
58222;SDS011;44020;50.890;15.796;2023-08-30T07:43:48;2.50;;;1.00;;
58222;SDS011;44020;50.890;15.796;2023-08-30T07:46:15;1.60;;;1.20;;
58222;SDS011;44020;50.890;15.796;2023-08-30T07:48:42;1.70;;;1.30;;
58222;SDS011;44020;50.890;15.796;2023-08-30T07:51:09;1.70;;;0.90;;
58222;SDS011;44020;50.890;15.796;2023-08-30T07:53:37;1.50;;;1.00;;
58222;SDS011;44020;50.890;15.796;2023-08-30T07:56:04;1.20;;;0.80;;
58222;SDS011;44020;50.890;15.796;2023-08-30T07:58:31;1.70;;;0.90;;
58222;SDS011;44020;50.890;15.796;2023-08-30T08:00:58;1.10;;;0.50;;
58222;SDS011;44020;50.890;15.796;2023-08-30T08:03:26;1.00;;;0.60;;
58222;SDS011;44020;50.890;15.796;2023-08-30T08:05:53;1.10;;;0.50;;
58222;SDS011;44020;50.890;15.796;2023-08-30T08:08:20;0.50;;;0.40;;
58222;SDS011;44020;50.890;15.796;2023-08-30T08:10:47;0.60;;;0.50;;
58222;SDS011;44020;50.890;15.796;2023-08-30T08:13:14;2.10;;;0.60;;
58222;SDS011;44020;50.890;15.796;2023-08-30T08:15:41;0.90;;;0.80;;
58222;SDS011;44020;50.890;15.796;2023-08-30T08:18:10;0.60;;;0.40;;
58222;SDS011;44020;50.890;15.796;2023-08-30T08:20:37;0.60;;;0.60;;
58222;SDS011;44020;50.890;15.796;2023-08-30T08:23:06;0.60;;;0.50;;
58222;SDS011;44020;50.890;15.796;2023-08-30T08:25:33;1.60;;;0.60;;
58222;SDS011;44020;50.890;15.796;2023-08-30T08:28:00;1.30;;;0.50;;
58222;SDS011;44020;50.890;15.796;2023-08-30T08:30:27;0.60;;;0.50;;
58222;SDS011;44020;50.890;15.796;2023-08-30T08:32:54;2.30;;;0.60;;
58222;SDS011;44020;50.890;15.796;2023-08-30T08:35:22;1.40;;;0.80;;
58222;SDS011;44020;50.890;15.796;2023-08-30T08:37:50;2.30;;;0.70;;
58222;SDS011;44020;50.890;15.796;2023-08-30T08:40:17;0.80;;;0.70;;
58222;SDS011;44020;50.890;15.796;2023-08-30T08:42:45;0.90;;;0.70;;
58222;SDS011;44020;50.890;15.796;2023-08-30T08:45:17;0.90;;;0.60;;
58222;SDS011;44020;50.890;15.796;2023-08-30T08:47:46;1.90;;;0.90;;
58222;SDS011;44020;50.890;15.796;2023-08-30T08:50:14;2.20;;;0.80;;
58222;SDS011;44020;50.890;15.796;2023-08-30T08:52:41;1.30;;;0.90;;
58222;SDS011;44020;50.890;15.796;2023-08-30T08:55:09;1.00;;;0.70;;
58222;SDS011;44020;50.890;15.796;2023-08-30T08:57:37;0.80;;;0.70;;
58222;SDS011;44020;50.890;15.796;2023-08-30T09:00:06;1.20;;;0.80;;
58222;SDS011;44020;50.890;15.796;2023-08-30T09:02:34;0.90;;;0.70;;
58222;SDS011;44020;50.890;15.796;2023-08-30T09:05:01;1.10;;;0.60;;
58222;SDS011;44020;50.890;15.796;2023-08-30T09:07:31;0.90;;;0.60;;
58222;SDS011;44020;50.890;15.796;2023-08-30T09:10:00;1.30;;;0.70;;
58222;SDS011;44020;50.890;15.796;2023-08-30T09:12:27;0.80;;;0.60;;
58222;SDS011;44020;50.890;15.796;2023-08-30T09:14:54;1.40;;;0.50;;
58222;SDS011;44020;50.890;15.796;2023-08-30T09:17:35;0.70;;;0.60;;
58222;SDS011;44020;50.890;15.796;2023-08-30T09:20:08;1.90;;;0.50;;
58222;SDS011;44020;50.890;15.796;2023-08-30T09:22:37;1.00;;;0.50;;
58222;SDS011;44020;50.890;15.796;2023-08-30T09:25:06;1.60;;;0.50;;
58222;SDS011;44020;50.890;15.796;2023-08-30T09:27:35;0.80;;;0.40;;
58222;SDS011;44020;50.890;15.796;2023-08-30T09:30:05;1.20;;;0.50;;
58222;SDS011;44020;50.890;15.796;2023-08-30T09:32:41;1.20;;;0.60;;
58222;SDS011;44020;50.890;15.796;2023-08-30T09:35:09;1.10;;;0.60;;
58222;SDS011;44020;50.890;15.796;2023-08-30T09:37:36;1.60;;;0.80;;
58222;SDS011;44020;50.890;15.796;2023-08-30T09:40:04;1.60;;;0.60;;
58222;SDS011;44020;50.890;15.796;2023-08-30T09:42:32;0.80;;;0.60;;
58222;SDS011;44020;50.890;15.796;2023-08-30T09:44:59;2.40;;;0.50;;
58222;SDS011;44020;50.890;15.796;2023-08-30T09:47:27;1.60;;;0.60;;
58222;SDS011;44020;50.890;15.796;2023-08-30T09:49:54;0.80;;;0.60;;
58222;SDS011;44020;50.890;15.796;2023-08-30T09:52:25;0.70;;;0.60;;
58222;SDS011;44020;50.890;15.796;2023-08-30T09:54:54;1.80;;;0.60;;
58222;SDS011;44020;50.890;15.796;2023-08-30T09:57:23;1.00;;;0.50;;
58222;SDS011;44020;50.890;15.796;2023-08-30T09:59:51;1.30;;;0.50;;
58222;SDS011;44020;50.890;15.796;2023-08-30T10:02:19;2.00;;;0.60;;
58222;SDS011;44020;50.890;15.796;2023-08-30T10:04:47;0.70;;;0.60;;
58222;SDS011;44020;50.890;15.796;2023-08-30T10:07:16;0.70;;;0.50;;
58222;SDS011;44020;50.890;15.796;2023-08-30T10:09:46;0.80;;;0.40;;
58222;SDS011;44020;50.890;15.796;2023-08-30T10:12:14;0.70;;;0.50;;
58222;SDS011;44020;50.890;15.796;2023-08-30T10:14:43;0.90;;;0.50;;
58222;SDS011;44020;50.890;15.796;2023-08-30T10:17:10;0.80;;;0.50;;
58222;SDS011;44020;50.890;15.796;2023-08-30T10:19:41;0.40;;;0.40;;
58222;SDS011;44020;50.890;15.796;2023-08-30T10:22:09;0.90;;;0.70;;
58222;SDS011;44020;50.890;15.796;2023-08-30T10:24:42;0.90;;;0.80;;
58222;SDS011;44020;50.890;15.796;2023-08-30T10:27:13;1.30;;;0.80;;
58222;SDS011;44020;50.890;15.796;2023-08-30T10:29:42;1.10;;;1.00;;
58222;SDS011;44020;50.890;15.796;2023-08-30T10:32:11;2.60;;;0.90;;
58222;SDS011;44020;50.890;15.796;2023-08-30T10:34:38;1.20;;;1.00;;
58222;SDS011;44020;50.890;15.796;2023-08-30T10:37:06;1.90;;;1.20;;
58222;SDS011;44020;50.890;15.796;2023-08-30T10:39:36;1.90;;;1.20;;
58222;SDS011;44020;50.890;15.796;2023-08-30T10:42:13;2.40;;;1.10;;
58222;SDS011;44020;50.890;15.796;2023-08-30T10:44:49;1.10;;;1.00;;
58222;SDS011;44020;50.890;15.796;2023-08-30T10:47:27;1.90;;;0.90;;
58222;SDS011;44020;50.890;15.796;2023-08-30T10:49:59;1.90;;;1.10;;
58222;SDS011;44020;50.890;15.796;2023-08-30T10:52:31;2.40;;;0.80;;
58222;SDS011;44020;50.890;15.796;2023-08-30T10:55:14;1.40;;;1.00;;
58222;SDS011;44020;50.890;15.796;2023-08-30T10:57:43;1.70;;;1.00;;
58222;SDS011;44020;50.890;15.796;2023-08-30T11:02:45;0.90;;;0.70;;
58222;SDS011;44020;50.890;15.796;2023-08-30T11:05:15;1.30;;;0.70;;
58222;SDS011;44020;50.890;15.796;2023-08-30T11:07:43;1.20;;;1.00;;
58222;SDS011;44020;50.890;15.796;2023-08-30T11:10:11;1.20;;;0.80;;
58222;SDS011;44020;50.890;15.796;2023-08-30T11:12:42;1.60;;;1.00;;
58222;SDS011;44020;50.890;15.796;2023-08-30T11:15:11;1.30;;;0.90;;
58222;SDS011;44020;50.890;15.796;2023-08-30T11:17:43;1.40;;;0.90;;
58222;SDS011;44020;50.890;15.796;2023-08-30T11:20:14;1.30;;;0.80;;
58222;SDS011;44020;50.890;15.796;2023-08-30T11:22:47;1.20;;;0.80;;
58222;SDS011;44020;50.890;15.796;2023-08-30T11:25:15;1.90;;;0.70;;
58222;SDS011;44020;50.890;15.796;2023-08-30T11:27:43;0.90;;;0.40;;
58222;SDS011;44020;50.890;15.796;2023-08-30T11:30:10;1.50;;;0.70;;
58222;SDS011;44020;50.890;15.796;2023-08-30T11:32:39;0.60;;;0.60;;
58222;SDS011;44020;50.890;15.796;2023-08-30T11:35:09;2.00;;;0.70;;
58222;SDS011;44020;50.890;15.796;2023-08-30T11:37:36;1.60;;;0.90;;
58222;SDS011;44020;50.890;15.796;2023-08-30T11:40:04;1.10;;;0.70;;
58222;SDS011;44020;50.890;15.796;2023-08-30T11:42:32;1.30;;;0.70;;
58222;SDS011;44020;50.890;15.796;2023-08-30T11:45:00;2.00;;;0.80;;
58222;SDS011;44020;50.890;15.796;2023-08-30T11:47:28;1.00;;;0.60;;
58222;SDS011;44020;50.890;15.796;2023-08-30T11:49:56;1.90;;;0.80;;
58222;SDS011;44020;50.890;15.796;2023-08-30T11:52:25;3.00;;;0.90;;
58222;SDS011;44020;50.890;15.796;2023-08-30T11:54:53;1.80;;;0.90;;
58222;SDS011;44020;50.890;15.796;2023-08-30T11:57:21;4.00;;;0.90;;
58222;SDS011;44020;50.890;15.796;2023-08-30T11:59:49;0.90;;;0.80;;
58222;SDS011;44020;50.890;15.796;2023-08-30T12:02:17;1.90;;;1.20;;
58222;SDS011;44020;50.890;15.796;2023-08-30T12:04:46;4.00;;;1.10;;
58222;SDS011;44020;50.890;15.796;2023-08-30T12:07:23;3.00;;;1.40;;
58222;SDS011;44020;50.890;15.796;2023-08-30T12:10:03;1.80;;;1.10;;
58222;SDS011;44020;50.890;15.796;2023-08-30T12:12:31;3.80;;;1.30;;
58222;SDS011;44020;50.890;15.796;2023-08-30T12:14:59;4.10;;;1.70;;
58222;SDS011;44020;50.890;15.796;2023-08-30T12:17:26;3.00;;;1.60;;
58222;SDS011;44020;50.890;15.796;2023-08-30T12:19:57;4.50;;;1.90;;
58222;SDS011;44020;50.890;15.796;2023-08-30T12:22:40;4.00;;;2.00;;
58222;SDS011;44020;50.890;15.796;2023-08-30T12:25:21;4.10;;;2.10;;
58222;SDS011;44020;50.890;15.796;2023-08-30T12:27:53;3.80;;;2.10;;
58222;SDS011;44020;50.890;15.796;2023-08-30T12:30:20;3.10;;;1.70;;
58222;SDS011;44020;50.890;15.796;2023-08-30T12:32:47;6.60;;;2.70;;
58222;SDS011;44020;50.890;15.796;2023-08-30T12:35:15;3.30;;;2.00;;
58222;SDS011;44020;50.890;15.796;2023-08-30T12:37:42;3.90;;;2.20;;
58222;SDS011;44020;50.890;15.796;2023-08-30T12:40:10;4.00;;;1.80;;
58222;SDS011;44020;50.890;15.796;2023-08-30T12:42:38;3.90;;;2.20;;
58222;SDS011;44020;50.890;15.796;2023-08-30T12:45:05;7.80;;;2.50;;
58222;SDS011;44020;50.890;15.796;2023-08-30T12:47:34;3.70;;;2.10;;
58222;SDS011;44020;50.890;15.796;2023-08-30T12:50:02;5.40;;;2.50;;
58222;SDS011;44020;50.890;15.796;2023-08-30T12:52:29;3.90;;;2.70;;
58222;SDS011;44020;50.890;15.796;2023-08-30T12:54:55;4.70;;;2.60;;
58222;SDS011;44020;50.890;15.796;2023-08-30T12:57:23;4.40;;;2.70;;
58222;SDS011;44020;50.890;15.796;2023-08-30T12:59:50;7.10;;;2.70;;
58222;SDS011;44020;50.890;15.796;2023-08-30T13:02:17;3.80;;;2.20;;
58222;SDS011;44020;50.890;15.796;2023-08-30T13:04:44;7.90;;;3.20;;
58222;SDS011;44020;50.890;15.796;2023-08-30T13:07:11;3.80;;;2.70;;
58222;SDS011;44020;50.890;15.796;2023-08-30T13:09:38;3.70;;;2.30;;
58222;SDS011;44020;50.890;15.796;2023-08-30T13:12:06;5.00;;;2.80;;
58222;SDS011;44020;50.890;15.796;2023-08-30T13:14:33;3.80;;;2.80;;
58222;SDS011;44020;50.890;15.796;2023-08-30T13:17:00;3.60;;;2.80;;
58222;SDS011;44020;50.890;15.796;2023-08-30T13:19:27;3.00;;;2.70;;
58222;SDS011;44020;50.890;15.796;2023-08-30T13:21:55;4.70;;;2.50;;
58222;SDS011;44020;50.890;15.796;2023-08-30T13:24:22;3.40;;;2.70;;
58222;SDS011;44020;50.890;15.796;2023-08-30T13:26:49;4.90;;;3.00;;
58222;SDS011;44020;50.890;15.796;2023-08-30T13:29:16;4.40;;;3.10;;
58222;SDS011;44020;50.890;15.796;2023-08-30T13:31:43;5.70;;;3.20;;
58222;SDS011;44020;50.890;15.796;2023-08-30T13:34:10;5.60;;;3.70;;
58222;SDS011;44020;50.890;15.796;2023-08-30T13:36:37;4.80;;;3.50;;
58222;SDS011;44020;50.890;15.796;2023-08-30T13:39:05;5.50;;;3.60;;
58222;SDS011;44020;50.890;15.796;2023-08-30T13:41:32;7.50;;;3.30;;
58222;SDS011;44020;50.890;15.796;2023-08-30T13:44:00;6.10;;;3.30;;
58222;SDS011;44020;50.890;15.796;2023-08-30T13:46:27;7.70;;;3.60;;
58222;SDS011;44020;50.890;15.796;2023-08-30T13:48:54;5.60;;;3.90;;
58222;SDS011;44020;50.890;15.796;2023-08-30T13:51:22;7.60;;;4.10;;
58222;SDS011;44020;50.890;15.796;2023-08-30T13:53:49;5.20;;;3.60;;
58222;SDS011;44020;50.890;15.796;2023-08-30T13:56:20;6.50;;;3.70;;
58222;SDS011;44020;50.890;15.796;2023-08-30T13:58:47;5.50;;;3.30;;
58222;SDS011;44020;50.890;15.796;2023-08-30T14:01:14;6.90;;;3.80;;
58222;SDS011;44020;50.890;15.796;2023-08-30T14:03:41;6.10;;;3.90;;
58222;SDS011;44020;50.890;15.796;2023-08-30T14:06:09;4.50;;;3.30;;
58222;SDS011;44020;50.890;15.796;2023-08-30T14:08:36;5.40;;;3.30;;
58222;SDS011;44020;50.890;15.796;2023-08-30T14:11:05;6.40;;;3.70;;
58222;SDS011;44020;50.890;15.796;2023-08-30T14:13:32;7.80;;;4.00;;
58222;SDS011;44020;50.890;15.796;2023-08-30T14:16:00;6.00;;;4.10;;
58222;SDS011;44020;50.890;15.796;2023-08-30T14:18:27;7.80;;;4.50;;
58222;SDS011;44020;50.890;15.796;2023-08-30T14:20:55;6.50;;;3.80;;
58222;SDS011;44020;50.890;15.796;2023-08-30T14:23:26;5.80;;;3.50;;
58222;SDS011;44020;50.890;15.796;2023-08-30T14:26:04;7.30;;;4.30;;
58222;SDS011;44020;50.890;15.796;2023-08-30T14:28:36;6.90;;;5.00;;
58222;SDS011;44020;50.890;15.796;2023-08-30T14:31:06;5.70;;;4.70;;
58222;SDS011;44020;50.890;15.796;2023-08-30T14:33:34;11.30;;;7.10;;
58222;SDS011;44020;50.890;15.796;2023-08-30T14:36:02;19.30;;;15.40;;
58222;SDS011;44020;50.890;15.796;2023-08-30T14:38:29;34.20;;;30.70;;
58222;SDS011;44020;50.890;15.796;2023-08-30T14:41:00;15.30;;;12.50;;
58222;SDS011;44020;50.890;15.796;2023-08-30T14:43:27;8.50;;;6.80;;
58222;SDS011;44020;50.890;15.796;2023-08-30T14:46:04;7.10;;;5.00;;
58222;SDS011;44020;50.890;15.796;2023-08-30T14:48:32;8.10;;;4.90;;
58222;SDS011;44020;50.890;15.796;2023-08-30T14:51:00;6.20;;;4.90;;
58222;SDS011;44020;50.890;15.796;2023-08-30T14:53:28;6.90;;;5.10;;
58222;SDS011;44020;50.890;15.796;2023-08-30T14:55:55;7.90;;;5.80;;
58222;SDS011;44020;50.890;15.796;2023-08-30T14:58:22;7.90;;;5.90;;
58222;SDS011;44020;50.890;15.796;2023-08-30T15:00:49;7.70;;;5.60;;
58222;SDS011;44020;50.890;15.796;2023-08-30T15:03:17;7.00;;;5.40;;
58222;SDS011;44020;50.890;15.796;2023-08-30T15:05:44;7.00;;;5.10;;